Time;durP1;ratioP1;P1;durP2;ratioP2;P2;SDS_P1;SDS_P2;PMS_P1;PMS_P2;Temp;Humidity;BMP_temperature;BMP_pressure;BME280_temperature;BME280_humidity;BME280_pressure;Samples;Min_cycle;Max_cycle;Signal;HPM_P1;HPM_P2
2022/06/18 00:00:39;;;;;;;;;;;;;;;34.52;28.67;101022.22;4436617;32;20001;-70
2022/06/18 00:03:05;;;;;;;;;;;;;;;34.35;29.07;101031.69;4436718;32;20324;-69
2022/06/18 00:05:33;;;;;;;;;;;;;;;34.47;28.94;101025.41;4435338;32;20077;-69
2022/06/18 00:07:59;;;;;;;;;;;;;;;33.59;30.19;101018.31;4436561;32;20343;-70
2022/06/18 00:10:30;;;;;;;;;;;;;;;33.57;30.30;101013.06;4433939;32;20041;-70
2022/06/18 00:15:53;;;;;;;;;;;;;;;34.51;28.96;101011.88;4434964;32;19961;-69
2022/06/18 00:18:19;;;;;;;;;;;;;;;34.67;28.72;101013.28;4435186;32;19996;-70
2022/06/18 00:20:45;;;;;;;;;;;;;;;34.91;28.22;101015.34;4437088;32;19996;-70
2022/06/18 00:23:12;;;;;;;;;;;;;;;35.19;27.96;101020.66;4436706;32;19953;-70
2022/06/18 00:25:39;;;;;;;;;;;;;;;34.94;28.04;101014.13;4435819;32;20112;-70
2022/06/18 00:28:24;;;;;;;;;;;;;;;35.49;27.48;101013.63;4436939;32;19993;-70
2022/06/18 00:30:50;;;;;;;;;;;;;;;35.23;27.70;101017.28;4433009;32;19960;-70
2022/06/18 00:33:16;;;;;;;;;;;;;;;35.11;27.80;101019.19;4436811;32;20008;-69
2022/06/18 00:35:42;;;;;;;;;;;;;;;35.62;27.18;101016.16;4437619;32;20056;-69
2022/06/18 00:38:12;;;;;;;;;;;;;;;35.96;26.77;101016.00;4433673;32;19966;-70
2022/06/18 00:40:40;;;;;;;;;;;;;;;35.69;27.01;101013.09;4433932;32;19976;-70
2022/06/18 00:43:10;;;;;;;;;;;;;;;35.99;26.66;101006.75;4438716;32;20386;-69
2022/06/18 00:45:35;;;;;;;;;;;;;;;36.08;26.43;101014.03;4435872;32;20201;-69
2022/06/18 00:48:11;;;;;;;;;;;;;;;36.28;26.18;101020.78;4436181;32;20000;-69
2022/06/18 00:53:18;;;;;;;;;;;;;;;36.07;26.68;101035.94;3957649;32;15722592;-70
2022/06/18 00:55:47;;;;;;;;;;;;;;;36.07;26.68;101035.94;4431784;32;20355;-70
2022/06/18 01:00:50;;;;;;;;;;;;;;;34.97;27.41;101050.19;3956132;32;15725900;-70
2022/06/18 01:03:24;;;;;;;;;;;;;;;34.97;27.41;101050.19;4435183;32;20349;-70
2022/06/18 01:05:51;;;;;;;;;;;;;;;33.54;29.00;101048.50;4436533;32;19984;-70
2022/06/18 01:08:19;;;;;;;;;;;;;;;32.18;30.73;101045.19;4435553;32;20033;-69
2022/06/18 01:10:50;;;;;;;;;;;;;;;33.14;29.30;101030.19;4436197;32;20308;-70
2022/06/18 01:13:17;;;;;;;;;;;;;;;33.36;28.72;101033.00;4438347;32;20394;-69
2022/06/18 01:15:44;;;;;;;;;;;;;;;33.11;29.11;101049.66;4437539;32;20068;-70
2022/06/18 01:18:10;;;;;;;;;;;;;;;33.29;28.76;101048.41;4437776;32;20004;-69
2022/06/18 01:20:40;;;;;;;;;;;;;;;33.15;28.86;101058.00;4437416;32;20173;-69
2022/06/18 01:23:18;;;;;;;;;;;;;;;33.14;28.86;101054.31;4438283;32;20354;-69
2022/06/18 01:25:44;;;;;;;;;;;;;;;33.52;28.40;101051.22;4435452;32;19988;-69
2022/06/18 01:28:09;;;;;;;;;;;;;;;34.26;27.44;101044.06;4437273;32;20230;-69
2022/06/18 01:30:38;;;;;;;;;;;;;;;34.06;27.58;101054.00;4438896;32;20086;-70
2022/06/18 01:33:07;;;;;;;;;;;;;;;34.26;27.16;101029.44;4435713;32;20005;-70
2022/06/18 01:35:35;;;;;;;;;;;;;;;34.38;26.93;101038.53;4436269;32;19957;-69
2022/06/18 01:38:01;;;;;;;;;;;;;;;34.49;26.65;101038.03;4436210;32;19957;-69
2022/06/18 01:40:30;;;;;;;;;;;;;;;34.85;26.40;101040.37;4437089;32;20482;-69
2022/06/18 01:42:58;;;;;;;;;;;;;;;34.89;26.30;101034.88;4437593;32;19965;-69
2022/06/18 01:45:27;;;;;;;;;;;;;;;34.72;26.32;101026.84;4428215;32;20036;-69
2022/06/18 01:47:55;;;;;;;;;;;;;;;34.97;25.87;101036.31;4436502;32;20712;-69
2022/06/18 01:50:27;;;;;;;;;;;;;;;34.94;26.05;101030.94;4435474;32;20282;-69
2022/06/18 01:52:56;;;;;;;;;;;;;;;35.16;25.77;101026.94;4434661;32;19968;-69
2022/06/18 01:55:27;;;;;;;;;;;;;;;35.12;25.15;101039.06;4435205;32;20030;-69
2022/06/18 01:57:55;;;;;;;;;;;;;;;34.52;25.40;101039.75;4433341;32;19996;-69
2022/06/18 02:00:22;;;;;;;;;;;;;;;34.84;24.67;101039.56;4436398;32;19985;-69
2022/06/18 02:02:48;;;;;;;;;;;;;;;34.88;23.72;101042.88;4437830;32;20306;-71
2022/06/18 02:05:14;;;;;;;;;;;;;;;34.49;23.25;101046.81;4434044;32;20010;-69
2022/06/18 02:07:43;;;;;;;;;;;;;;;34.78;23.21;101050.00;4436702;32;19961;-69
2022/06/18 02:10:13;;;;;;;;;;;;;;;34.81;23.03;101051.72;4432525;32;19993;-69
2022/06/18 02:12:40;;;;;;;;;;;;;;;34.43;23.44;101049.19;4427398;32;20008;-69
2022/06/18 02:15:08;;;;;;;;;;;;;;;34.26;23.74;101055.75;4426758;32;19988;-69
2022/06/18 02:17:35;;;;;;;;;;;;;;;34.56;23.22;101062.69;4423036;32;20027;-69
2022/06/18 02:20:04;;;;;;;;;;;;;;;34.52;23.53;101051.44;4424349;32;19957;-69
2022/06/18 02:22:34;;;;;;;;;;;;;;;35.06;22.93;101055.34;4424359;32;20505;-69
2022/06/18 02:25:00;;;;;;;;;;;;;;;35.10;22.91;101071.09;4422115;32;20020;-69
2022/06/18 02:27:25;;;;;;;;;;;;;;;34.65;23.50;101068.66;4425742;32;19996;-69
2022/06/18 02:29:53;;;;;;;;;;;;;;;34.13;24.60;101058.19;4428946;32;19996;-69
2022/06/18 02:32:28;;;;;;;;;;;;;;;34.53;23.89;101072.66;4426358;32;19953;-69
2022/06/18 02:34:54;;;;;;;;;;;;;;;34.80;23.67;101067.69;4423855;32;20642;-69
2022/06/18 02:37:22;;;;;;;;;;;;;;;34.63;23.80;101067.72;4426943;32;19965;-69
2022/06/18 02:42:31;;;;;;;;;;;;;;;34.06;24.15;101062.75;3964837;31;15717097;-69
2022/06/18 02:44:59;;;;;;;;;;;;;;;34.06;24.15;101062.75;4440070;32;20103;-69
2022/06/18 02:47:25;;;;;;;;;;;;;;;33.88;24.19;101069.12;4436202;32;19993;-69
2022/06/18 02:49:54;;;;;;;;;;;;;;;34.43;23.21;101072.56;4438524;32;20008;-69
2022/06/18 02:52:21;;;;;;;;;;;;;;;34.63;22.81;101074.31;4437901;32;19999;-69
2022/06/18 02:54:47;;;;;;;;;;;;;;;34.86;22.90;101074.88;4437628;32;19956;-69
2022/06/18 02:57:19;;;;;;;;;;;;;;;35.21;22.57;101076.41;4436261;32;20432;-69
2022/06/18 02:59:45;;;;;;;;;;;;;;;35.13;22.55;101075.75;4439002;32;20346;-69
2022/06/18 03:02:10;;;;;;;;;;;;;;;34.50;22.22;101086.34;4436115;32;19986;-69
2022/06/18 03:04:36;;;;;;;;;;;;;;;34.86;22.03;101077.81;4438004;32;20020;-69
2022/06/18 03:07:01;;;;;;;;;;;;;;;35.08;21.74;101070.91;4437603;32;20291;-69
2022/06/18 03:09:27;;;;;;;;;;;;;;;34.71;21.88;101080.87;4438382;32;20457;-69
2022/06/18 03:12:07;;;;;;;;;;;;;;;34.86;21.47;101091.66;4433233;32;20205;-70
2022/06/18 03:14:33;;;;;;;;;;;;;;;34.41;21.81;101089.94;4439932;32;20678;-69
2022/06/18 03:16:59;;;;;;;;;;;;;;;33.50;22.53;101089.00;4439413;32;19948;-70
2022/06/18 03:19:42;;;;;;;;;;;;;;;32.80;23.08;101094.84;4439947;32;19971;-69
2022/06/18 03:22:12;;;;;;;;;;;;;;;33.70;22.14;101091.59;4437368;32;20402;-69
2022/06/18 03:24:40;;;;;;;;;;;;;;;33.84;21.92;101097.94;4436537;32;20016;-69
2022/06/18 03:27:07;;;;;;;;;;;;;;;33.87;21.73;101097.53;4437425;32;19976;-69
2022/06/18 03:29:33;;;;;;;;;;;;;;;33.82;21.69;101110.22;4439060;32;20016;-69
2022/06/18 03:32:00;;;;;;;;;;;;;;;34.06;21.47;101105.78;4437945;32;20033;-69
2022/06/18 03:34:26;;;;;;;;;;;;;;;33.85;21.78;101111.94;4437297;32;20029;-69
2022/06/18 03:36:51;;;;;;;;;;;;;;;34.03;21.56;101107.75;4436413;32;20434;-69
2022/06/18 03:39:17;;;;;;;;;;;;;;;33.95;21.77;101109.16;4438506;32;20005;-69
2022/06/18 03:41:43;;;;;;;;;;;;;;;33.72;21.92;101108.50;4436749;32;20031;-69
2022/06/18 03:44:09;;;;;;;;;;;;;;;34.17;21.53;101111.13;4438240;32;20330;-69
2022/06/18 03:46:36;;;;;;;;;;;;;;;34.31;21.43;101119.03;4439179;32;19949;-69
2022/06/18 03:49:03;;;;;;;;;;;;;;;34.36;21.47;101123.88;4433600;32;19961;-69
2022/06/18 03:51:29;;;;;;;;;;;;;;;34.24;21.57;101134.44;4440985;32;19988;-69
2022/06/18 03:53:54;;;;;;;;;;;;;;;33.43;22.55;101143.09;4428675;32;20412;-69
2022/06/18 03:56:21;;;;;;;;;;;;;;;33.06;22.87;101128.59;4428862;32;19968;-69
2022/06/18 03:58:48;;;;;;;;;;;;;;;31.43;24.57;101114.84;4427218;32;19957;-69
2022/06/18 04:01:16;;;;;;;;;;;;;;;32.52;23.29;101118.41;4426696;32;19968;-69
2022/06/18 04:03:41;;;;;;;;;;;;;;;32.79;23.07;101124.59;4424696;32;20015;-69
2022/06/18 04:06:09;;;;;;;;;;;;;;;32.71;23.22;101126.72;4427655;32;19977;-69
2022/06/18 04:08:34;;;;;;;;;;;;;;;33.19;22.68;101107.97;4428573;32;19958;-69
2022/06/18 04:11:00;;;;;;;;;;;;;;;33.31;22.38;101114.94;4424375;32;19953;-69
2022/06/18 04:13:28;;;;;;;;;;;;;;;32.77;22.94;101131.00;4430531;32;19953;-69
2022/06/18 04:15:54;;;;;;;;;;;;;;;33.33;22.24;101142.16;4427128;32;20027;-69
2022/06/18 04:18:19;;;;;;;;;;;;;;;33.31;22.28;101130.28;4426828;32;20438;-69
2022/06/18 04:20:45;;;;;;;;;;;;;;;33.36;22.20;101125.59;4428453;32;19993;-69
2022/06/18 04:23:11;;;;;;;;;;;;;;;32.48;22.93;101130.44;4427476;32;19968;-69
2022/06/18 04:25:37;;;;;;;;;;;;;;;33.61;21.57;101135.22;4425823;32;19992;-69
2022/06/18 04:28:03;;;;;;;;;;;;;;;32.70;22.16;101137.59;4427308;32;20017;-69
2022/06/18 04:30:30;;;;;;;;;;;;;;;32.42;22.44;101135.69;4426713;32;19989;-69
2022/06/18 04:32:56;;;;;;;;;;;;;;;31.60;23.16;101139.16;4426334;32;19997;-69
2022/06/18 04:35:22;;;;;;;;;;;;;;;32.39;22.17;101139.75;4427201;32;20137;-69
2022/06/18 04:37:48;;;;;;;;;;;;;;;31.95;22.50;101125.91;4425566;32;19973;-69
2022/06/18 04:40:17;;;;;;;;;;;;;;;32.09;22.21;101127.28;4427243;32;19988;-69
2022/06/18 04:42:42;;;;;;;;;;;;;;;32.15;22.17;101125.72;4425889;32;19957;-69
2022/06/18 04:45:08;;;;;;;;;;;;;;;31.84;22.23;101123.38;4425376;32;19989;-69
2022/06/18 04:47:34;;;;;;;;;;;;;;;32.44;21.47;101130.06;4429433;32;20087;-69
2022/06/18 04:49:59;;;;;;;;;;;;;;;32.66;21.32;101143.03;4427251;32;19993;-69
2022/06/18 04:52:25;;;;;;;;;;;;;;;32.74;21.16;101140.91;4427074;32;20545;-69
2022/06/18 04:54:52;;;;;;;;;;;;;;;32.73;20.87;101138.59;4424087;32;20339;-69
2022/06/18 04:57:19;;;;;;;;;;;;;;;32.80;20.83;101143.62;4426048;32;20050;-69
2022/06/18 04:59:45;;;;;;;;;;;;;;;32.77;20.67;101136.81;4428516;32;20424;-69
2022/06/18 05:02:20;;;;;;;;;;;;;;;32.87;20.58;101131.19;4431403;32;20152;-69
2022/06/18 05:04:46;;;;;;;;;;;;;;;32.80;20.47;101132.75;4425463;32;19988;-69
2022/06/18 05:07:12;;;;;;;;;;;;;;;32.51;20.56;101138.00;4428052;32;19999;-69
2022/06/18 05:09:37;;;;;;;;;;;;;;;32.19;20.92;101137.00;4427877;32;20034;-69
2022/06/18 05:12:03;;;;;;;;;;;;;;;31.81;21.37;101136.16;4428656;32;19984;-69
2022/06/18 05:14:30;;;;;;;;;;;;;;;31.52;21.58;101135.47;4425682;32;19973;-69
2022/06/18 05:16:56;;;;;;;;;;;;;;;31.77;21.53;101130.69;4426521;32;20008;-69
2022/06/18 05:19:24;;;;;;;;;;;;;;;31.65;21.62;101132.41;4428666;32;20003;-69
2022/06/18 05:21:50;;;;;;;;;;;;;;;32.02;21.21;101137.56;4425270;32;20500;-69
2022/06/18 05:24:15;;;;;;;;;;;;;;;31.69;21.53;101140.75;4426934;32;20022;-69
2022/06/18 05:26:44;;;;;;;;;;;;;;;31.45;21.82;101139.13;4428307;32;19953;-69
2022/06/18 05:29:10;;;;;;;;;;;;;;;31.21;22.20;101159.94;4423881;32;20305;-69
2022/06/18 05:31:36;;;;;;;;;;;;;;;31.08;22.42;101157.16;4429118;32;19968;-69
2022/06/18 05:34:03;;;;;;;;;;;;;;;31.22;22.33;101152.75;4426061;32;20681;-69
2022/06/18 05:36:29;;;;;;;;;;;;;;;32.08;21.41;101163.56;4425452;32;19949;-69
2022/06/18 05:38:57;;;;;;;;;;;;;;;31.75;21.68;101156.69;4426972;32;19961;-70
2022/06/18 05:41:23;;;;;;;;;;;;;;;32.20;21.22;101151.00;4424978;32;20503;-69
2022/06/18 05:43:50;;;;;;;;;;;;;;;32.42;21.04;101155.28;4425862;32;21634;-69
2022/06/18 05:46:16;;;;;;;;;;;;;;;32.47;20.81;101171.81;4424299;32;19996;-69
2022/06/18 05:48:41;;;;;;;;;;;;;;;32.31;21.03;101162.25;4426786;32;19953;-69
2022/06/18 05:51:08;;;;;;;;;;;;;;;32.18;21.16;101161.69;4426824;32;19979;-69
2022/06/18 05:53:33;;;;;;;;;;;;;;;31.78;21.47;101158.44;4427462;32;20011;-69
2022/06/18 05:55:59;;;;;;;;;;;;;;;30.49;22.84;101167.72;4427437;32;20001;-69
2022/06/18 05:58:24;;;;;;;;;;;;;;;30.74;22.82;101174.72;4423095;32;20346;-69
2022/06/18 06:00:50;;;;;;;;;;;;;;;31.30;22.18;101179.78;4426820;32;19941;-69
2022/06/18 06:03:15;;;;;;;;;;;;;;;31.84;21.55;101172.87;4426594;32;19977;-69
2022/06/18 06:05:41;;;;;;;;;;;;;;;31.84;21.47;101175.78;4424097;32;20003;-69
2022/06/18 06:08:07;;;;;;;;;;;;;;;31.33;21.87;101180.75;4424898;32;19968;-69
2022/06/18 06:13:19;;;;;;;;;;;;;;;31.77;21.40;101188.91;4425037;32;20517;-69
2022/06/18 06:15:45;;;;;;;;;;;;;;;32.08;20.87;101178.94;4425879;32;20024;-69
2022/06/18 06:18:12;;;;;;;;;;;;;;;31.60;21.03;101182.06;4425303;32;20227;-69
2022/06/18 06:20:38;;;;;;;;;;;;;;;31.50;21.28;101189.78;4427052;32;19953;-69
2022/06/18 06:23:05;;;;;;;;;;;;;;;31.22;21.38;101186.84;4419095;32;20001;-68
2022/06/18 06:25:30;;;;;;;;;;;;;;;32.08;20.58;101198.53;4425110;32;20426;-69
2022/06/18 06:27:56;;;;;;;;;;;;;;;30.64;21.71;101201.94;4427320;32;20022;-69
2022/06/18 06:30:22;;;;;;;;;;;;;;;31.29;21.14;101215.25;4425627;32;20466;-69
2022/06/18 06:32:47;;;;;;;;;;;;;;;31.39;20.95;101225.78;4427660;32;20358;-69
2022/06/18 06:35:13;;;;;;;;;;;;;;;30.99;21.20;101218.72;4426826;32;20056;-69
2022/06/18 06:37:39;;;;;;;;;;;;;;;31.47;20.85;101226.59;4422936;32;20020;-69
2022/06/18 06:40:06;;;;;;;;;;;;;;;31.77;20.44;101238.38;4424800;32;19965;-68
2022/06/18 06:42:40;;;;;;;;;;;;;;;32.18;19.96;101240.31;4425973;32;20003;-69
2022/06/18 06:45:09;;;;;;;;;;;;;;;32.42;19.66;101237.66;4426619;32;20370;-69
2022/06/18 06:47:35;;;;;;;;;;;;;;;32.37;19.66;101235.69;4424941;32;19961;-69
2022/06/18 06:50:00;;;;;;;;;;;;;;;33.03;18.77;101228.94;4428704;32;19961;-69
2022/06/18 06:52:26;;;;;;;;;;;;;;;32.57;19.24;101234.78;4425954;32;19961;-69
2022/06/18 06:57:21;;;;;;;;;;;;;;;32.72;19.10;101233.19;4425428;32;20405;-69
2022/06/18 06:57:40;;;;;;;;;;;;;;;33.06;18.85;101239.44;4422325;32;19969;-69
2022/06/18 07:00:06;;;;;;;;;;;;;;;33.18;18.68;101240.59;4424759;32;20030;-69
2022/06/18 07:02:32;;;;;;;;;;;;;;;33.42;18.45;101242.91;4422022;32;20373;-69
2022/06/18 07:04:58;;;;;;;;;;;;;;;33.71;18.16;101230.34;4424722;32;20000;-69
2022/06/18 07:07:25;;;;;;;;;;;;;;;33.52;18.36;101224.19;4426587;32;20703;-69
2022/06/18 07:09:51;;;;;;;;;;;;;;;33.65;18.00;101206.44;4424309;32;20306;-69
2022/06/18 07:12:17;;;;;;;;;;;;;;;34.17;17.62;101205.41;4424239;32;19957;-69
2022/06/18 07:14:43;;;;;;;;;;;;;;;33.84;17.59;101215.50;4425805;32;19993;-69
2022/06/18 07:17:16;;;;;;;;;;;;;;;33.42;18.09;101211.59;4426114;32;20613;-69
2022/06/18 07:19:42;;;;;;;;;;;;;;;34.23;17.44;101216.84;4424549;32;19975;-69
2022/06/18 07:22:10;;;;;;;;;;;;;;;34.56;16.98;101217.63;4426228;32;19957;-69
2022/06/18 07:24:37;;;;;;;;;;;;;;;34.86;16.95;101226.97;4425503;32;20068;-69
2022/06/18 07:27:04;;;;;;;;;;;;;;;35.18;16.72;101234.88;4425749;32;20630;-69
2022/06/18 07:29:29;;;;;;;;;;;;;;;35.32;16.51;101225.16;4427044;32;19968;-69
2022/06/18 07:31:55;;;;;;;;;;;;;;;35.54;16.34;101230.00;4428529;32;19949;-69
2022/06/18 07:34:21;;;;;;;;;;;;;;;35.49;16.58;101219.31;4427720;32;20407;-69
2022/06/18 07:36:47;;;;;;;;;;;;;;;36.10;16.16;101195.87;4429263;32;19953;-69
2022/06/18 07:39:13;;;;;;;;;;;;;;;35.29;16.47;101182.44;4429064;32;19993;-69
2022/06/18 07:41:41;;;;;;;;;;;;;;;35.27;15.59;101188.12;4429527;32;19965;-69
2022/06/18 07:44:07;;;;;;;;;;;;;;;35.28;15.14;101200.59;4420140;32;21045;-69
2022/06/18 07:46:33;;;;;;;;;;;;;;;35.29;15.06;101208.78;4425379;32;20086;-69
2022/06/18 07:48:59;;;;;;;;;;;;;;;35.23;14.90;101207.47;4427699;32;20040;-69
2022/06/18 07:51:26;;;;;;;;;;;;;;;35.84;14.13;101200.38;4426837;32;19961;-69
2022/06/18 07:53:52;;;;;;;;;;;;;;;36.34;13.70;101185.38;4426307;32;20343;-69
2022/06/18 07:56:18;;;;;;;;;;;;;;;35.37;13.91;101174.38;4428798;32;20003;-69
2022/06/18 07:58:44;;;;;;;;;;;;;;;35.82;13.49;101179.69;4430110;32;20009;-69
2022/06/18 08:01:09;;;;;;;;;;;;;;;36.53;12.93;101171.56;4425572;32;20005;-69
2022/06/18 08:03:35;;;;;;;;;;;;;;;36.93;12.53;101180.66;4425498;32;19997;-69
2022/06/18 08:06:02;;;;;;;;;;;;;;;36.33;12.96;101178.75;4427223;32;20326;-69
2022/06/18 08:08:27;;;;;;;;;;;;;;;35.58;13.63;101185.63;4426225;32;20035;-69
2022/06/18 08:10:53;;;;;;;;;;;;;;;36.31;13.27;101187.38;4429393;32;20076;-69
2022/06/18 08:13:19;;;;;;;;;;;;;;;36.85;12.97;101162.44;4428136;32;20281;-69
2022/06/18 08:15:45;;;;;;;;;;;;;;;37.21;12.84;101159.41;4426962;32;19997;-69
2022/06/18 08:18:10;;;;;;;;;;;;;;;37.60;12.64;101151.34;4427555;32;20576;-70
2022/06/18 08:20:36;;;;;;;;;;;;;;;37.89;12.50;101149.19;4428440;32;20329;-69
2022/06/18 08:23:03;;;;;;;;;;;;;;;37.63;12.58;101153.06;4421957;32;19993;-69
2022/06/18 08:25:30;;;;;;;;;;;;;;;37.16;12.80;101162.63;4424241;32;19964;-69
2022/06/18 08:27:56;;;;;;;;;;;;;;;37.54;12.49;101169.31;4428417;32;20525;-69
2022/06/18 08:30:22;;;;;;;;;;;;;;;37.04;12.79;101165.41;4428166;32;19973;-69
2022/06/18 08:32:47;;;;;;;;;;;;;;;37.26;12.86;101183.97;4420160;32;20387;-70
2022/06/18 08:35:13;;;;;;;;;;;;;;;37.41;12.91;101201.31;4425354;32;20016;-70
2022/06/18 08:37:40;;;;;;;;;;;;;;;36.76;13.44;101209.34;4427162;32;20001;-70
2022/06/18 08:40:34;;;;;;;;;;;;;;;36.05;14.15;101212.34;4427963;32;20517;-70
2022/06/18 08:43:02;;;;;;;;;;;;;;;35.24;14.87;101200.25;4427390;32;20031;-70
2022/06/18 08:45:38;;;;;;;;;;;;;;;35.98;14.26;101195.66;4427242;32;19963;-69
2022/06/18 08:53:45;;;;;;;;;;;;;;;36.01;14.50;101203.22;3948831;32;15722594;-70
2022/06/18 08:56:14;;;;;;;;;;;;;;;36.01;14.50;101203.22;4426884;32;20167;-70
2022/06/18 08:59:00;;;;;;;;;;;;;;;36.49;14.19;101214.47;4426156;32;20348;-70
2022/06/18 09:01:32;;;;;;;;;;;;;;;36.80;14.10;101233.91;4426726;32;20982;-70
2022/06/18 09:04:17;;;;;;;;;;;;;;;36.27;14.67;101227.28;4428395;32;19996;-70
2022/06/18 09:12:14;;;;;;;;;;;;;;;37.21;14.14;101179.97;3937289;32;15725494;-71
2022/06/18 09:14:45;;;;;;;;;;;;;;;37.21;14.14;101179.97;4414578;32;20483;-70
2022/06/18 09:19:52;;;;;;;;;;;;;;;38.13;13.46;101197.25;3950779;32;15724394;-71
2022/06/18 09:22:19;;;;;;;;;;;;;;;38.13;13.46;101197.25;4429425;32;20285;-71
2022/06/18 09:24:46;;;;;;;;;;;;;;;37.85;13.56;101210.56;4429124;32;20330;-71
2022/06/18 09:27:30;;;;;;;;;;;;;;;37.46;13.89;101214.91;4429741;32;19988;-71
2022/06/18 09:38:01;;;;;;;;;;;;;;;37.25;12.72;101232.34;3943808;32;15724607;-70
2022/06/18 09:40:33;;;;;;;;;;;;;;;37.25;12.72;101232.34;4418876;32;20005;-71
2022/06/18 09:43:18;;;;;;;;;;;;;;;36.30;13.05;101212.22;4416138;32;19997;-70
2022/06/18 09:45:47;;;;;;;;;;;;;;;36.12;12.76;101190.97;4417491;32;20397;-71
2022/06/18 09:48:13;;;;;;;;;;;;;;;37.42;12.20;101159.56;4420755;32;19958;-71
2022/06/18 09:55:55;;;;;;;;;;;;;;;36.90;12.84;101172.34;3949470;32;15724562;-70
2022/06/18 09:58:25;;;;;;;;;;;;;;;37.76;12.36;101176.88;4428238;32;20010;-70
2022/06/18 10:00:53;;;;;;;;;;;;;;;37.84;12.33;101182.59;4428754;32;20057;-70
2022/06/18 10:08:55;;;;;;;;;;;;;;;36.69;13.54;101172.09;4425965;32;20102;-70
2022/06/18 10:11:22;;;;;;;;;;;;;;;35.90;14.13;101165.72;4412881;32;20052;-70
2022/06/18 10:13:51;;;;;;;;;;;;;;;36.11;14.08;101163.03;4427342;32;21303;-70
2022/06/18 10:16:37;;;;;;;;;;;;;;;36.27;14.04;101157.72;4426082;32;20036;-69
2022/06/18 10:19:13;;;;;;;;;;;;;;;36.59;13.71;101165.44;4425613;32;20048;-70
2022/06/18 10:21:45;;;;;;;;;;;;;;;36.65;13.76;101157.88;4427473;32;20023;-70
2022/06/18 10:24:18;;;;;;;;;;;;;;;35.94;14.22;101147.66;4424818;32;20015;-70
2022/06/18 10:27:04;;;;;;;;;;;;;;;37.37;13.19;101145.22;4427234;32;19961;-70
2022/06/18 10:29:35;;;;;;;;;;;;;;;36.66;13.55;101141.84;4425803;32;19961;-70
2022/06/18 10:37:26;;;;;;;;;;;;;;;37.73;13.10;101124.47;3949895;32;15725410;-70
2022/06/18 10:39:59;;;;;;;;;;;;;;;37.73;13.10;101124.47;4426541;32;20003;-70
2022/06/18 10:42:33;;;;;;;;;;;;;;;36.20;14.24;101117.59;4427352;32;19954;-70
2022/06/18 10:47:38;;;;;;;;;;;;;;;38.61;12.91;101101.56;3949566;32;15725546;-71
2022/06/18 10:50:08;;;;;;;;;;;;;;;38.61;12.91;101101.56;4429928;32;20320;-71
2022/06/18 10:52:36;;;;;;;;;;;;;;;37.98;13.30;101098.41;4430061;32;19997;-71
2022/06/18 10:57:42;;;;;;;;;;;;;;;37.50;13.44;101092.66;3948785;32;15725593;-71
2022/06/18 11:00:10;;;;;;;;;;;;;;;37.50;13.44;101092.66;4427576;32;20024;-69
2022/06/18 11:02:37;;;;;;;;;;;;;;;37.55;13.37;101100.34;4421245;32;20011;-69
2022/06/18 11:05:05;;;;;;;;;;;;;;;37.04;13.65;101106.72;4422208;32;19949;-70
2022/06/18 11:07:33;;;;;;;;;;;;;;;37.15;13.71;101120.00;4424210;32;20001;-70
2022/06/18 11:10:00;;;;;;;;;;;;;;;37.33;13.54;101124.34;4425448;32;19976;-70
2022/06/18 11:12:28;;;;;;;;;;;;;;;37.70;13.32;101125.72;4424541;32;19957;-69
2022/06/18 11:14:55;;;;;;;;;;;;;;;37.84;13.16;101133.41;4424401;32;19958;-70
2022/06/18 11:20:07;;;;;;;;;;;;;;;39.60;12.11;101150.41;3950594;32;15727671;-71
2022/06/18 11:22:33;;;;;;;;;;;;;;;39.60;12.11;101150.41;4430535;32;19983;-71
2022/06/18 11:25:01;;;;;;;;;;;;;;;38.74;12.75;101147.31;4430806;32;20019;-71
2022/06/18 11:27:29;;;;;;;;;;;;;;;38.48;13.09;101155.00;4433705;32;20010;-70
2022/06/18 11:29:55;;;;;;;;;;;;;;;37.35;13.95;101156.78;4431150;32;20711;-70
2022/06/18 11:32:26;;;;;;;;;;;;;;;37.50;13.97;101154.31;4430503;32;20433;-70
2022/06/18 11:34:57;;;;;;;;;;;;;;;37.02;14.40;101155.69;4429066;32;19992;-70
2022/06/18 11:37:24;;;;;;;;;;;;;;;37.87;13.78;101154.91;4432210;32;19971;-70
2022/06/18 11:39:53;;;;;;;;;;;;;;;37.82;13.56;101147.16;4432278;32;20007;-70
2022/06/18 11:45:16;;;;;;;;;;;;;;;40.93;11.79;101148.78;3949460;32;15729424;-71
2022/06/18 11:47:49;;;;;;;;;;;;;;;40.93;11.79;101148.78;4426823;32;19961;-71
2022/06/18 11:50:19;;;;;;;;;;;;;;;41.00;11.59;101153.62;4412054;32;20045;-71
2022/06/18 11:52:49;;;;;;;;;;;;;;;41.89;11.07;101161.94;4426994;32;19969;-71
2022/06/18 12:03:16;;;;;;;;;;;;;;;42.02;11.03;101155.31;3970621;31;15716121;-70
2022/06/18 12:05:46;;;;;;;;;;;;;;;42.02;11.03;101155.31;4441566;32;20304;-70
2022/06/18 12:08:16;;;;;;;;;;;;;;;40.37;12.00;101142.25;4443768;32;20382;-70
2022/06/18 12:13:26;;;;;;;;;;;;;;;39.66;12.46;101157.47;3949468;32;15723580;-71
2022/06/18 12:16:05;;;;;;;;;;;;;;;39.66;12.46;101157.47;4431841;32;19957;-70
2022/06/18 12:21:17;;;;;;;;;;;;;;;39.60;12.76;101143.41;3951038;32;15722597;-71
2022/06/18 12:26:22;;;;;;;;;;;;;;;38.20;13.75;101131.63;3949203;32;15725472;-71
2022/06/18 12:31:30;;;;;;;;;;;;;;;37.10;14.87;101124.78;3949748;32;15722587;-71
2022/06/18 12:34:04;;;;;;;;;;;;;;;37.10;14.87;101124.78;4424880;32;19965;-71
2022/06/18 12:41:50;;;;;;;;;;;;;;;35.56;15.27;101195.03;3949996;32;15722371;-70
2022/06/18 12:47:00;;;;;;;;;;;;;;;35.16;15.64;101182.00;3949809;32;15726627;-71
2022/06/18 12:49:34;;;;;;;;;;;;;;;35.16;15.64;101182.00;4430264;32;20008;-71
2022/06/18 12:52:13;;;;;;;;;;;;;;;34.18;15.81;101189.44;4428765;32;19953;-70
2022/06/18 13:00:11;;;;;;;;;;;;;;;33.54;17.12;101179.84;3949226;32;15721465;-70
2022/06/18 13:02:57;;;;;;;;;;;;;;;33.54;17.12;101179.84;4421920;32;20328;-70
2022/06/18 13:05:42;;;;;;;;;;;;;;;33.26;17.36;101136.34;4424308;32;20019;-70
2022/06/18 13:10:51;;;;;;;;;;;;;;;34.44;16.86;101097.50;3955933;32;15732567;-71
2022/06/18 13:15:59;;;;;;;;;;;;;;;34.05;17.12;101116.69;3961809;31;15716799;-71
2022/06/18 13:18:46;;;;;;;;;;;;;;;34.10;17.11;101126.59;4428226;32;20000;-70
2022/06/18 13:21:11;;;;;;;;;;;;;;;33.72;17.34;101164.00;4427567;32;20023;-70
2022/06/18 13:29:33;;;;;;;;;;;;;;;33.13;17.75;101133.66;4427680;32;19984;-70
2022/06/18 13:32:03;;;;;;;;;;;;;;;33.79;17.27;101110.59;4428901;32;20390;-69
2022/06/18 13:47:48;;;;;;;;;;;;;;;33.89;17.33;101120.31;3950205;32;15724510;-70
2022/06/18 13:53:06;;;;;;;;;;;;;;;33.86;17.04;101106.84;3949869;32;15715685;-70
2022/06/18 13:55:34;;;;;;;;;;;;;;;33.86;16.83;101055.06;4432771;32;20535;-70
2022/06/18 13:58:01;;;;;;;;;;;;;;;35.03;15.91;101047.78;4432591;32;20404;-70
2022/06/18 14:00:29;;;;;;;;;;;;;;;35.25;15.86;101070.13;4434696;32;19956;-70
2022/06/18 14:03:05;;;;;;;;;;;;;;;34.50;16.50;101054.19;4433159;32;20375;-70
2022/06/18 14:08:19;;;;;;;;;;;;;;;34.99;16.19;101074.53;3951712;32;15732450;-70
2022/06/18 14:10:45;;;;;;;;;;;;;;;34.99;16.19;101074.53;4442293;32;19992;-71
2022/06/18 14:13:12;;;;;;;;;;;;;;;34.73;16.52;101056.88;4438862;32;19965;-70
2022/06/18 14:15:38;;;;;;;;;;;;;;;35.08;16.29;101068.00;4442081;32;19964;-71
2022/06/18 14:18:05;;;;;;;;;;;;;;;34.98;16.28;101064.22;4428040;32;20022;-70
2022/06/18 14:20:33;;;;;;;;;;;;;;;34.57;16.63;101067.94;4437737;32;20008;-70
2022/06/18 14:23:01;;;;;;;;;;;;;;;35.35;16.12;101065.13;4440317;32;20030;-71
2022/06/18 14:25:27;;;;;;;;;;;;;;;35.29;16.17;101068.31;4439159;32;20000;-71
2022/06/18 14:27:53;;;;;;;;;;;;;;;34.99;16.38;101054.06;4435569;32;19996;-70
2022/06/18 14:30:21;;;;;;;;;;;;;;;34.53;16.84;101055.13;4438484;32;20371;-70
2022/06/18 14:32:59;;;;;;;;;;;;;;;34.86;16.37;101045.62;4440460;32;19945;-70
2022/06/18 14:38:04;;;;;;;;;;;;;;;34.85;16.47;101064.53;3952905;32;15722405;-71
2022/06/18 14:40:31;;;;;;;;;;;;;;;34.85;16.47;101064.53;4424022;32;20246;-70
2022/06/18 14:43:16;;;;;;;;;;;;;;;33.40;17.54;101070.53;4431918;32;20013;-71
2022/06/18 14:46:02;;;;;;;;;;;;;;;32.97;18.00;101056.34;4426748;32;20407;-71